Hartford, Connecticut
Traffic Map
Current Weather Conditions
Hartford, Connecticut
Few Clouds
Few Clouds
21°
Feels Like: 21°
Wind Chill: 21° Ceiling: Unl
Heat Index: 21° Visibility: 10mi
Dew Point: 14° Wind: 7mph
Humidity: 65% Direction: 240° (WSW)
Pressure: 29.89in Gusts: 0mph
Raw Report DataKHFD 021153Z 24006KT 10SM FEW002 21/14 A2989 RMK AO2 SLP123 T02060139 10206 20156 51014
Traffic Incident Summary
Active as of:
Severity:
Category:
InformationThere was an issue retrieving the traffic information for this location. Please try a different location or try again shortly.
Advertisements
Track Severe Weather on mobile